sensor_id;sensor_type;location;lat;lon;timestamp;temperature;humidity
1225;DHT22;602;48.000;7.840;2022-07-23T00:00:15;27.30;99.90
1225;DHT22;602;48.000;7.840;2022-07-23T00:02:42;27.40;99.90
1225;DHT22;602;48.000;7.840;2022-07-23T00:05:10;27.30;99.90
1225;DHT22;602;48.000;7.840;2022-07-23T00:07:37;27.30;99.90
1225;DHT22;602;48.000;7.840;2022-07-23T00:10:06;27.20;99.90
1225;DHT22;602;48.000;7.840;2022-07-23T00:12:33;27.20;99.90
1225;DHT22;602;48.000;7.840;2022-07-23T00:15:00;27.00;99.90
1225;DHT22;602;48.000;7.840;2022-07-23T00:17:27;27.00;99.90
1225;DHT22;602;48.000;7.840;2022-07-23T00:19:56;27.00;99.90
1225;DHT22;602;48.000;7.840;2022-07-23T00:22:23;26.90;99.90
1225;DHT22;602;48.000;7.840;2022-07-23T00:24:50;26.80;99.90
1225;DHT22;602;48.000;7.840;2022-07-23T00:27:18;26.70;99.90
1225;DHT22;602;48.000;7.840;2022-07-23T00:29:45;26.70;99.90
1225;DHT22;602;48.000;7.840;2022-07-23T00:32:12;26.60;99.90
1225;DHT22;602;48.000;7.840;2022-07-23T00:34:38;26.40;99.90
1225;DHT22;602;48.000;7.840;2022-07-23T00:37:05;26.30;99.90
1225;DHT22;602;48.000;7.840;2022-07-23T00:39:32;26.30;99.90
1225;DHT22;602;48.000;7.840;2022-07-23T00:41:59;26.20;99.90
1225;DHT22;602;48.000;7.840;2022-07-23T00:44:28;26.10;99.90
1225;DHT22;602;48.000;7.840;2022-07-23T00:46:56;26.20;99.90
1225;DHT22;602;48.000;7.840;2022-07-23T00:49:24;26.20;99.90
1225;DHT22;602;48.000;7.840;2022-07-23T00:51:52;26.30;99.90
1225;DHT22;602;48.000;7.840;2022-07-23T00:54:22;26.20;99.90
1225;DHT22;602;48.000;7.840;2022-07-23T00:56:49;26.10;99.90
1225;DHT22;602;48.000;7.840;2022-07-23T00:59:16;26.10;99.90
1225;DHT22;602;48.000;7.840;2022-07-23T01:01:45;26.30;99.90
1225;DHT22;602;48.000;7.840;2022-07-23T01:04:14;26.30;99.90
1225;DHT22;602;48.000;7.840;2022-07-23T01:06:43;26.40;99.90
1225;DHT22;602;48.000;7.840;2022-07-23T01:09:10;26.50;99.90
1225;DHT22;602;48.000;7.840;2022-07-23T01:11:37;26.50;99.90
1225;DHT22;602;48.000;7.840;2022-07-23T01:14:12;26.40;99.90
1225;DHT22;602;48.000;7.840;2022-07-23T01:16:39;26.30;99.90
1225;DHT22;602;48.000;7.840;2022-07-23T01:19:07;26.20;99.90
1225;DHT22;602;48.000;7.840;2022-07-23T01:21:36;26.20;99.90
1225;DHT22;602;48.000;7.840;2022-07-23T01:24:06;26.20;99.90
1225;DHT22;602;48.000;7.840;2022-07-23T01:26:33;26.00;99.90
1225;DHT22;602;48.000;7.840;2022-07-23T01:29:00;25.90;99.90
1225;DHT22;602;48.000;7.840;2022-07-23T01:31:27;25.90;99.90
1225;DHT22;602;48.000;7.840;2022-07-23T01:33:54;25.80;99.90
1225;DHT22;602;48.000;7.840;2022-07-23T01:36:21;25.90;99.90
1225;DHT22;602;48.000;7.840;2022-07-23T01:38:48;25.90;99.90
1225;DHT22;602;48.000;7.840;2022-07-23T01:41:16;25.90;99.90
1225;DHT22;602;48.000;7.840;2022-07-23T01:43:43;25.80;99.90
1225;DHT22;602;48.000;7.840;2022-07-23T01:46:10;25.60;99.90
1225;DHT22;602;48.000;7.840;2022-07-23T01:48:37;25.60;99.90
1225;DHT22;602;48.000;7.840;2022-07-23T01:51:04;25.30;99.90
1225;DHT22;602;48.000;7.840;2022-07-23T01:53:31;24.90;99.90
1225;DHT22;602;48.000;7.840;2022-07-23T01:55:59;24.80;99.90
1225;DHT22;602;48.000;7.840;2022-07-23T01:58:27;24.60;99.90
1225;DHT22;602;48.000;7.840;2022-07-23T02:00:54;24.60;99.90
1225;DHT22;602;48.000;7.840;2022-07-23T02:03:22;24.60;99.90
1225;DHT22;602;48.000;7.840;2022-07-23T02:05:49;24.50;99.90
1225;DHT22;602;48.000;7.840;2022-07-23T02:08:16;24.40;99.90
1225;DHT22;602;48.000;7.840;2022-07-23T02:10:43;24.20;99.90
1225;DHT22;602;48.000;7.840;2022-07-23T02:13:10;24.10;99.90
1225;DHT22;602;48.000;7.840;2022-07-23T02:15:38;24.00;99.90
1225;DHT22;602;48.000;7.840;2022-07-23T02:18:05;23.80;99.90
1225;DHT22;602;48.000;7.840;2022-07-23T02:20:33;23.80;99.90
1225;DHT22;602;48.000;7.840;2022-07-23T02:23:00;23.70;99.90
1225;DHT22;602;48.000;7.840;2022-07-23T02:25:27;23.70;99.90
1225;DHT22;602;48.000;7.840;2022-07-23T02:27:54;23.60;99.90
1225;DHT22;602;48.000;7.840;2022-07-23T02:30:21;23.50;99.90
1225;DHT22;602;48.000;7.840;2022-07-23T02:32:49;23.50;99.90
1225;DHT22;602;48.000;7.840;2022-07-23T02:35:16;23.50;99.90
1225;DHT22;602;48.000;7.840;2022-07-23T02:37:43;23.60;99.90
1225;DHT22;602;48.000;7.840;2022-07-23T02:40:10;23.50;99.90
1225;DHT22;602;48.000;7.840;2022-07-23T02:42:38;23.50;99.90
1225;DHT22;602;48.000;7.840;2022-07-23T02:45:06;23.40;99.90
1225;DHT22;602;48.000;7.840;2022-07-23T02:47:33;23.40;99.90
1225;DHT22;602;48.000;7.840;2022-07-23T02:50:01;23.30;99.90
1225;DHT22;602;48.000;7.840;2022-07-23T02:52:29;23.30;99.90
1225;DHT22;602;48.000;7.840;2022-07-23T02:54:56;23.20;99.90
1225;DHT22;602;48.000;7.840;2022-07-23T02:57:22;23.10;99.90
1225;DHT22;602;48.000;7.840;2022-07-23T02:59:51;23.10;99.90
1225;DHT22;602;48.000;7.840;2022-07-23T03:02:17;23.30;99.90
1225;DHT22;602;48.000;7.840;2022-07-23T03:04:44;23.30;99.90
1225;DHT22;602;48.000;7.840;2022-07-23T03:07:12;23.20;99.90
1225;DHT22;602;48.000;7.840;2022-07-23T03:09:39;23.20;99.90
1225;DHT22;602;48.000;7.840;2022-07-23T03:12:07;23.20;99.90
1225;DHT22;602;48.000;7.840;2022-07-23T03:14:34;23.10;99.90
1225;DHT22;602;48.000;7.840;2022-07-23T03:17:01;23.10;99.90
1225;DHT22;602;48.000;7.840;2022-07-23T03:19:28;23.00;99.90
1225;DHT22;602;48.000;7.840;2022-07-23T03:21:54;22.90;99.90
1225;DHT22;602;48.000;7.840;2022-07-23T03:24:23;22.90;99.90
1225;DHT22;602;48.000;7.840;2022-07-23T03:27:10;22.80;99.90
1225;DHT22;602;48.000;7.840;2022-07-23T03:29:36;22.80;99.90
1225;DHT22;602;48.000;7.840;2022-07-23T03:32:04;22.80;99.90
1225;DHT22;602;48.000;7.840;2022-07-23T03:34:31;22.90;99.90
1225;DHT22;602;48.000;7.840;2022-07-23T03:36:58;22.80;99.90
1225;DHT22;602;48.000;7.840;2022-07-23T03:39:26;22.80;99.90
1225;DHT22;602;48.000;7.840;2022-07-23T03:41:53;22.80;99.90
1225;DHT22;602;48.000;7.840;2022-07-23T03:44:20;22.70;99.90
1225;DHT22;602;48.000;7.840;2022-07-23T03:46:46;22.70;99.90
1225;DHT22;602;48.000;7.840;2022-07-23T03:49:13;22.70;99.90
1225;DHT22;602;48.000;7.840;2022-07-23T03:51:40;22.70;99.90
1225;DHT22;602;48.000;7.840;2022-07-23T03:54:07;22.70;99.90
1225;DHT22;602;48.000;7.840;2022-07-23T03:56:35;22.70;99.90
1225;DHT22;602;48.000;7.840;2022-07-23T03:59:02;22.70;99.90
1225;DHT22;602;48.000;7.840;2022-07-23T04:01:29;22.50;99.90
1225;DHT22;602;48.000;7.840;2022-07-23T04:03:56;22.50;99.90
1225;DHT22;602;48.000;7.840;2022-07-23T04:06:23;22.60;99.90
1225;DHT22;602;48.000;7.840;2022-07-23T04:08:50;22.60;99.90
1225;DHT22;602;48.000;7.840;2022-07-23T04:11:17;22.50;99.90
1225;DHT22;602;48.000;7.840;2022-07-23T04:13:45;22.40;99.90
1225;DHT22;602;48.000;7.840;2022-07-23T04:16:12;22.30;99.90
1225;DHT22;602;48.000;7.840;2022-07-23T04:18:39;22.40;99.90
1225;DHT22;602;48.000;7.840;2022-07-23T04:21:06;22.30;99.90
1225;DHT22;602;48.000;7.840;2022-07-23T04:23:33;22.10;99.90
1225;DHT22;602;48.000;7.840;2022-07-23T04:25:59;22.00;99.90
1225;DHT22;602;48.000;7.840;2022-07-23T04:28:26;22.10;99.90
1225;DHT22;602;48.000;7.840;2022-07-23T04:30:56;22.10;99.90
1225;DHT22;602;48.000;7.840;2022-07-23T04:33:23;22.20;99.90
1225;DHT22;602;48.000;7.840;2022-07-23T04:35:49;22.30;99.90
1225;DHT22;602;48.000;7.840;2022-07-23T04:38:16;22.30;99.90
1225;DHT22;602;48.000;7.840;2022-07-23T04:40:43;22.30;99.90
1225;DHT22;602;48.000;7.840;2022-07-23T04:43:10;22.30;99.90
1225;DHT22;602;48.000;7.840;2022-07-23T04:45:37;22.40;99.90
1225;DHT22;602;48.000;7.840;2022-07-23T04:48:05;22.40;99.90
1225;DHT22;602;48.000;7.840;2022-07-23T04:50:32;22.40;99.90
1225;DHT22;602;48.000;7.840;2022-07-23T04:52:59;22.40;99.90
1225;DHT22;602;48.000;7.840;2022-07-23T04:55:26;22.40;99.90
1225;DHT22;602;48.000;7.840;2022-07-23T04:57:53;22.40;99.90
1225;DHT22;602;48.000;7.840;2022-07-23T05:00:20;22.40;99.90
1225;DHT22;602;48.000;7.840;2022-07-23T05:02:46;22.50;99.90
1225;DHT22;602;48.000;7.840;2022-07-23T05:05:15;22.50;99.90
1225;DHT22;602;48.000;7.840;2022-07-23T05:07:41;22.50;99.90
1225;DHT22;602;48.000;7.840;2022-07-23T05:10:08;22.40;99.90
1225;DHT22;602;48.000;7.840;2022-07-23T05:12:35;22.40;99.90
1225;DHT22;602;48.000;7.840;2022-07-23T05:15:02;22.40;99.90
1225;DHT22;602;48.000;7.840;2022-07-23T05:17:29;22.40;99.90
1225;DHT22;602;48.000;7.840;2022-07-23T05:19:56;22.50;99.90
1225;DHT22;602;48.000;7.840;2022-07-23T05:22:24;22.50;99.90
1225;DHT22;602;48.000;7.840;2022-07-23T05:24:51;22.40;99.90
1225;DHT22;602;48.000;7.840;2022-07-23T05:27:18;22.40;99.90
1225;DHT22;602;48.000;7.840;2022-07-23T05:29:45;22.40;99.90
1225;DHT22;602;48.000;7.840;2022-07-23T05:32:12;22.50;99.90
1225;DHT22;602;48.000;7.840;2022-07-23T05:34:38;22.50;99.90
1225;DHT22;602;48.000;7.840;2022-07-23T05:37:05;22.50;99.90
1225;DHT22;602;48.000;7.840;2022-07-23T05:39:34;22.50;99.90
1225;DHT22;602;48.000;7.840;2022-07-23T05:42:01;22.50;99.90
1225;DHT22;602;48.000;7.840;2022-07-23T05:44:28;22.50;99.90
1225;DHT22;602;48.000;7.840;2022-07-23T05:46:54;22.60;99.90
1225;DHT22;602;48.000;7.840;2022-07-23T05:49:21;22.70;99.90
1225;DHT22;602;48.000;7.840;2022-07-23T05:51:48;22.60;99.90
1225;DHT22;602;48.000;7.840;2022-07-23T05:54:15;22.70;99.90
1225;DHT22;602;48.000;7.840;2022-07-23T05:56:43;22.60;99.90
1225;DHT22;602;48.000;7.840;2022-07-23T05:59:10;22.70;99.90
1225;DHT22;602;48.000;7.840;2022-07-23T06:01:38;22.80;99.90
1225;DHT22;602;48.000;7.840;2022-07-23T06:04:05;22.80;99.90
1225;DHT22;602;48.000;7.840;2022-07-23T06:06:32;22.90;99.90
1225;DHT22;602;48.000;7.840;2022-07-23T06:08:59;22.90;99.90
1225;DHT22;602;48.000;7.840;2022-07-23T06:11:25;22.90;99.90
1225;DHT22;602;48.000;7.840;2022-07-23T06:13:54;23.10;99.90
1225;DHT22;602;48.000;7.840;2022-07-23T06:16:21;23.10;99.90
1225;DHT22;602;48.000;7.840;2022-07-23T06:18:48;23.10;99.90
1225;DHT22;602;48.000;7.840;2022-07-23T06:21:15;23.10;99.90
1225;DHT22;602;48.000;7.840;2022-07-23T06:23:42;23.10;99.90
1225;DHT22;602;48.000;7.840;2022-07-23T06:26:09;23.20;99.90
1225;DHT22;602;48.000;7.840;2022-07-23T06:28:35;23.20;99.90
1225;DHT22;602;48.000;7.840;2022-07-23T06:31:04;23.30;99.90
1225;DHT22;602;48.000;7.840;2022-07-23T06:33:31;23.30;99.90
1225;DHT22;602;48.000;7.840;2022-07-23T06:35:57;23.30;99.90
1225;DHT22;602;48.000;7.840;2022-07-23T06:38:24;23.40;99.90
1225;DHT22;602;48.000;7.840;2022-07-23T06:40:51;23.50;99.90
1225;DHT22;602;48.000;7.840;2022-07-23T06:43:18;23.40;99.90
1225;DHT22;602;48.000;7.840;2022-07-23T06:45:45;23.50;99.90
1225;DHT22;602;48.000;7.840;2022-07-23T06:48:13;23.40;99.90
1225;DHT22;602;48.000;7.840;2022-07-23T06:50:40;23.50;99.90
1225;DHT22;602;48.000;7.840;2022-07-23T06:53:07;23.50;99.90
1225;DHT22;602;48.000;7.840;2022-07-23T06:55:34;23.50;99.90
1225;DHT22;602;48.000;7.840;2022-07-23T06:58:03;23.60;99.90
1225;DHT22;602;48.000;7.840;2022-07-23T07:00:31;23.70;99.90
1225;DHT22;602;48.000;7.840;2022-07-23T07:02:58;23.80;99.90
1225;DHT22;602;48.000;7.840;2022-07-23T07:05:27;23.90;99.90
1225;DHT22;602;48.000;7.840;2022-07-23T07:07:54;24.00;99.90
1225;DHT22;602;48.000;7.840;2022-07-23T07:10:21;24.20;99.90
1225;DHT22;602;48.000;7.840;2022-07-23T07:12:48;24.30;99.90
1225;DHT22;602;48.000;7.840;2022-07-23T07:15:15;24.30;99.90
1225;DHT22;602;48.000;7.840;2022-07-23T07:17:41;24.40;99.90
1225;DHT22;602;48.000;7.840;2022-07-23T07:20:09;24.50;99.90
1225;DHT22;602;48.000;7.840;2022-07-23T07:22:38;24.70;99.90
1225;DHT22;602;48.000;7.840;2022-07-23T07:25:06;24.90;99.90
1225;DHT22;602;48.000;7.840;2022-07-23T07:27:33;24.90;99.90
1225;DHT22;602;48.000;7.840;2022-07-23T07:30:00;25.10;99.90
1225;DHT22;602;48.000;7.840;2022-07-23T07:32:26;25.10;99.90
1225;DHT22;602;48.000;7.840;2022-07-23T07:34:53;25.20;99.90
1225;DHT22;602;48.000;7.840;2022-07-23T07:37:20;25.20;99.90
1225;DHT22;602;48.000;7.840;2022-07-23T07:39:48;25.30;99.90
1225;DHT22;602;48.000;7.840;2022-07-23T07:42:17;25.40;99.90
1225;DHT22;602;48.000;7.840;2022-07-23T07:44:44;25.50;99.90
1225;DHT22;602;48.000;7.840;2022-07-23T07:47:15;25.60;99.90
1225;DHT22;602;48.000;7.840;2022-07-23T07:49:42;25.70;99.90
1225;DHT22;602;48.000;7.840;2022-07-23T07:52:11;25.90;99.90
1225;DHT22;602;48.000;7.840;2022-07-23T07:54:38;26.00;99.90
1225;DHT22;602;48.000;7.840;2022-07-23T07:57:09;26.00;99.90
1225;DHT22;602;48.000;7.840;2022-07-23T07:59:36;26.20;99.90
1225;DHT22;602;48.000;7.840;2022-07-23T08:02:03;26.50;99.90
1225;DHT22;602;48.000;7.840;2022-07-23T08:04:30;26.70;99.90
1225;DHT22;602;48.000;7.840;2022-07-23T08:06:57;26.90;99.90
1225;DHT22;602;48.000;7.840;2022-07-23T08:09:24;26.90;99.90
1225;DHT22;602;48.000;7.840;2022-07-23T08:11:50;27.00;99.90
1225;DHT22;602;48.000;7.840;2022-07-23T08:14:19;27.30;99.90
1225;DHT22;602;48.000;7.840;2022-07-23T08:16:46;27.50;99.90
1225;DHT22;602;48.000;7.840;2022-07-23T08:19:13;27.80;99.90
1225;DHT22;602;48.000;7.840;2022-07-23T08:21:39;27.80;99.90
1225;DHT22;602;48.000;7.840;2022-07-23T08:24:06;28.00;99.90
1225;DHT22;602;48.000;7.840;2022-07-23T08:26:33;28.30;99.90
1225;DHT22;602;48.000;7.840;2022-07-23T08:29:00;28.60;99.90
1225;DHT22;602;48.000;7.840;2022-07-23T08:31:28;28.80;99.90
1225;DHT22;602;48.000;7.840;2022-07-23T08:33:56;29.00;99.90
1225;DHT22;602;48.000;7.840;2022-07-23T08:36:23;29.00;99.90
1225;DHT22;602;48.000;7.840;2022-07-23T08:38:53;29.10;99.90
1225;DHT22;602;48.000;7.840;2022-07-23T08:41:20;29.00;99.90
1225;DHT22;602;48.000;7.840;2022-07-23T08:43:47;28.90;99.90
1225;DHT22;602;48.000;7.840;2022-07-23T08:46:14;29.00;99.90
1225;DHT22;602;48.000;7.840;2022-07-23T08:48:42;29.10;99.90
1225;DHT22;602;48.000;7.840;2022-07-23T08:51:09;29.00;99.90
1225;DHT22;602;48.000;7.840;2022-07-23T08:53:36;29.10;99.90
1225;DHT22;602;48.000;7.840;2022-07-23T08:56:04;29.10;99.90
1225;DHT22;602;48.000;7.840;2022-07-23T08:58:32;28.80;99.90
1225;DHT22;602;48.000;7.840;2022-07-23T09:00:59;28.60;99.90
1225;DHT22;602;48.000;7.840;2022-07-23T09:03:28;28.70;99.90
1225;DHT22;602;48.000;7.840;2022-07-23T09:05:58;28.90;99.90
1225;DHT22;602;48.000;7.840;2022-07-23T09:08:35;29.10;99.90
1225;DHT22;602;48.000;7.840;2022-07-23T09:11:04;29.10;99.90
1225;DHT22;602;48.000;7.840;2022-07-23T09:13:37;29.20;99.90
1225;DHT22;602;48.000;7.840;2022-07-23T09:16:07;29.40;99.90
1225;DHT22;602;48.000;7.840;2022-07-23T09:18:37;29.50;99.90
1225;DHT22;602;48.000;7.840;2022-07-23T09:21:17;29.60;99.90
1225;DHT22;602;48.000;7.840;2022-07-23T09:23:46;29.80;99.90
1225;DHT22;602;48.000;7.840;2022-07-23T09:26:25;29.90;99.90
1225;DHT22;602;48.000;7.840;2022-07-23T09:28:57;29.90;99.90
1225;DHT22;602;48.000;7.840;2022-07-23T09:31:26;29.80;99.90
1225;DHT22;602;48.000;7.840;2022-07-23T09:34:10;29.90;99.90
1225;DHT22;602;48.000;7.840;2022-07-23T09:36:39;29.90;99.90
1225;DHT22;602;48.000;7.840;2022-07-23T09:39:07;30.00;99.90
1225;DHT22;602;48.000;7.840;2022-07-23T09:41:36;30.10;99.90
1225;DHT22;602;48.000;7.840;2022-07-23T09:44:14;30.30;99.90
1225;DHT22;602;48.000;7.840;2022-07-23T09:46:43;30.60;99.90
1225;DHT22;602;48.000;7.840;2022-07-23T09:49:15;30.40;99.90
1225;DHT22;602;48.000;7.840;2022-07-23T09:51:52;30.40;99.90
1225;DHT22;602;48.000;7.840;2022-07-23T09:54:32;30.40;99.90
1225;DHT22;602;48.000;7.840;2022-07-23T09:57:02;30.30;99.90
1225;DHT22;602;48.000;7.840;2022-07-23T09:59:34;30.50;99.90
1225;DHT22;602;48.000;7.840;2022-07-23T10:02:01;31.10;99.90
1225;DHT22;602;48.000;7.840;2022-07-23T10:04:30;31.30;99.90
1225;DHT22;602;48.000;7.840;2022-07-23T10:07:01;31.60;99.90
1225;DHT22;602;48.000;7.840;2022-07-23T10:09:30;31.70;99.90
1225;DHT22;602;48.000;7.840;2022-07-23T10:11:59;31.70;99.90
1225;DHT22;602;48.000;7.840;2022-07-23T10:14:32;31.90;99.90
1225;DHT22;602;48.000;7.840;2022-07-23T10:17:01;31.70;99.90
1225;DHT22;602;48.000;7.840;2022-07-23T10:19:28;31.60;99.90
1225;DHT22;602;48.000;7.840;2022-07-23T10:21:59;31.70;99.90
1225;DHT22;602;48.000;7.840;2022-07-23T10:24:50;31.70;99.90
1225;DHT22;602;48.000;7.840;2022-07-23T10:27:43;31.90;99.90
1225;DHT22;602;48.000;7.840;2022-07-23T10:30:18;32.00;99.90
1225;DHT22;602;48.000;7.840;2022-07-23T10:32:56;32.00;99.90
1225;DHT22;602;48.000;7.840;2022-07-23T10:35:33;32.20;99.90
1225;DHT22;602;48.000;7.840;2022-07-23T10:38:15;32.30;99.90
1225;DHT22;602;48.000;7.840;2022-07-23T10:40:56;32.40;99.90
1225;DHT22;602;48.000;7.840;2022-07-23T10:43:23;32.40;99.90
1225;DHT22;602;48.000;7.840;2022-07-23T10:45:51;32.40;99.90
1225;DHT22;602;48.000;7.840;2022-07-23T10:48:19;32.50;99.90
1225;DHT22;602;48.000;7.840;2022-07-23T10:51:08;32.60;99.90
1225;DHT22;602;48.000;7.840;2022-07-23T10:53:55;32.80;99.90
1225;DHT22;602;48.000;7.840;2022-07-23T10:59:31;33.00;99.90
1225;DHT22;602;48.000;7.840;2022-07-23T11:02:22;32.80;99.90
1225;DHT22;602;48.000;7.840;2022-07-23T11:04:51;32.80;99.90
1225;DHT22;602;48.000;7.840;2022-07-23T11:07:18;32.80;99.90
1225;DHT22;602;48.000;7.840;2022-07-23T11:09:47;32.80;99.90
1225;DHT22;602;48.000;7.840;2022-07-23T11:12:33;33.10;99.90
1225;DHT22;602;48.000;7.840;2022-07-23T11:15:03;33.10;99.90
1225;DHT22;602;48.000;7.840;2022-07-23T11:17:32;33.40;99.90
1225;DHT22;602;48.000;7.840;2022-07-23T11:20:22;33.50;99.90
1225;DHT22;602;48.000;7.840;2022-07-23T11:22:51;33.80;99.90
1225;DHT22;602;48.000;7.840;2022-07-23T11:25:33;33.80;99.90
1225;DHT22;602;48.000;7.840;2022-07-23T11:28:12;34.10;99.90
1225;DHT22;602;48.000;7.840;2022-07-23T11:30:42;34.10;99.90
1225;DHT22;602;48.000;7.840;2022-07-23T11:33:20;34.20;99.90
1225;DHT22;602;48.000;7.840;2022-07-23T11:35:51;34.10;99.90
1225;DHT22;602;48.000;7.840;2022-07-23T11:38:26;34.20;99.90
1225;DHT22;602;48.000;7.840;2022-07-23T11:40:55;34.40;99.90
1225;DHT22;602;48.000;7.840;2022-07-23T11:43:23;34.50;99.90
1225;DHT22;602;48.000;7.840;2022-07-23T11:45:52;34.40;99.90
1225;DHT22;602;48.000;7.840;2022-07-23T11:48:21;34.60;99.90
1225;DHT22;602;48.000;7.840;2022-07-23T11:50:48;34.50;99.90
1225;DHT22;602;48.000;7.840;2022-07-23T11:53:22;34.40;99.90
1225;DHT22;602;48.000;7.840;2022-07-23T11:55:51;34.50;99.90
1225;DHT22;602;48.000;7.840;2022-07-23T11:58:19;34.50;99.90
1225;DHT22;602;48.000;7.840;2022-07-23T12:00:46;34.50;99.90
1225;DHT22;602;48.000;7.840;2022-07-23T12:03:13;34.30;99.90
1225;DHT22;602;48.000;7.840;2022-07-23T12:05:40;34.40;99.90
1225;DHT22;602;48.000;7.840;2022-07-23T12:08:08;34.40;99.90
1225;DHT22;602;48.000;7.840;2022-07-23T12:10:38;34.40;99.90
1225;DHT22;602;48.000;7.840;2022-07-23T12:13:09;34.30;99.90
1225;DHT22;602;48.000;7.840;2022-07-23T12:15:40;34.20;99.90
1225;DHT22;602;48.000;7.840;2022-07-23T12:18:09;34.00;99.90
1225;DHT22;602;48.000;7.840;2022-07-23T12:20:38;34.10;99.90
1225;DHT22;602;48.000;7.840;2022-07-23T12:23:06;34.00;99.90
1225;DHT22;602;48.000;7.840;2022-07-23T12:25:35;34.00;99.90
1225;DHT22;602;48.000;7.840;2022-07-23T12:28:05;34.00;99.90
1225;DHT22;602;48.000;7.840;2022-07-23T12:30:34;34.20;99.90
1225;DHT22;602;48.000;7.840;2022-07-23T12:33:05;34.30;99.90
1225;DHT22;602;48.000;7.840;2022-07-23T12:35:37;34.60;99.90
1225;DHT22;602;48.000;7.840;2022-07-23T12:38:07;34.70;99.90
1225;DHT22;602;48.000;7.840;2022-07-23T12:40:40;35.00;99.90
1225;DHT22;602;48.000;7.840;2022-07-23T12:43:11;34.90;99.90
1225;DHT22;602;48.000;7.840;2022-07-23T12:45:44;34.80;99.90
1225;DHT22;602;48.000;7.840;2022-07-23T12:48:28;34.50;99.90
1225;DHT22;602;48.000;7.840;2022-07-23T12:50:57;34.30;99.90
1225;DHT22;602;48.000;7.840;2022-07-23T12:53:26;34.40;99.90
1225;DHT22;602;48.000;7.840;2022-07-23T12:56:03;34.80;99.90
1225;DHT22;602;48.000;7.840;2022-07-23T12:58:41;34.20;99.90
1225;DHT22;602;48.000;7.840;2022-07-23T13:01:09;33.90;99.90
1225;DHT22;602;48.000;7.840;2022-07-23T13:03:39;33.80;99.90
1225;DHT22;602;48.000;7.840;2022-07-23T13:06:08;33.80;99.90
1225;DHT22;602;48.000;7.840;2022-07-23T13:08:37;34.10;99.90
1225;DHT22;602;48.000;7.840;2022-07-23T13:11:05;34.20;99.90
1225;DHT22;602;48.000;7.840;2022-07-23T13:13:34;34.50;99.90
1225;DHT22;602;48.000;7.840;2022-07-23T13:16:01;34.80;99.90
1225;DHT22;602;48.000;7.840;2022-07-23T13:18:29;34.90;99.90
1225;DHT22;602;48.000;7.840;2022-07-23T13:20:57;35.00;99.90
1225;DHT22;602;48.000;7.840;2022-07-23T13:23:24;34.90;99.90
1225;DHT22;602;48.000;7.840;2022-07-23T13:25:52;34.60;99.90
1225;DHT22;602;48.000;7.840;2022-07-23T13:28:20;34.80;99.90
1225;DHT22;602;48.000;7.840;2022-07-23T13:30:49;34.90;99.90
1225;DHT22;602;48.000;7.840;2022-07-23T13:33:17;34.70;99.90
1225;DHT22;602;48.000;7.840;2022-07-23T13:35:43;34.70;99.90
1225;DHT22;602;48.000;7.840;2022-07-23T13:38:14;34.90;99.90
1225;DHT22;602;48.000;7.840;2022-07-23T13:40:43;35.10;99.90
1225;DHT22;602;48.000;7.840;2022-07-23T13:43:12;35.20;99.90
1225;DHT22;602;48.000;7.840;2022-07-23T13:45:40;35.20;99.90
1225;DHT22;602;48.000;7.840;2022-07-23T13:48:08;34.90;99.90
1225;DHT22;602;48.000;7.840;2022-07-23T13:50:36;34.40;99.90
1225;DHT22;602;48.000;7.840;2022-07-23T13:53:04;34.40;99.90
1225;DHT22;602;48.000;7.840;2022-07-23T13:55:33;34.20;99.90
1225;DHT22;602;48.000;7.840;2022-07-23T13:58:00;34.10;99.90
1225;DHT22;602;48.000;7.840;2022-07-23T14:00:28;34.20;99.90
1225;DHT22;602;48.000;7.840;2022-07-23T14:02:56;34.30;99.90
1225;DHT22;602;48.000;7.840;2022-07-23T14:05:23;34.30;99.90
1225;DHT22;602;48.000;7.840;2022-07-23T14:07:50;34.20;99.90
1225;DHT22;602;48.000;7.840;2022-07-23T14:10:18;34.40;99.90
1225;DHT22;602;48.000;7.840;2022-07-23T14:12:47;34.40;99.90
1225;DHT22;602;48.000;7.840;2022-07-23T14:15:14;34.40;99.90
1225;DHT22;602;48.000;7.840;2022-07-23T14:17:43;34.30;99.90
1225;DHT22;602;48.000;7.840;2022-07-23T14:20:12;34.10;99.90
1225;DHT22;602;48.000;7.840;2022-07-23T14:22:39;34.00;99.90
1225;DHT22;602;48.000;7.840;2022-07-23T14:25:07;33.80;99.90
1225;DHT22;602;48.000;7.840;2022-07-23T14:27:34;33.70;99.90
1225;DHT22;602;48.000;7.840;2022-07-23T14:30:05;33.70;99.90
1225;DHT22;602;48.000;7.840;2022-07-23T14:32:32;33.70;99.90
1225;DHT22;602;48.000;7.840;2022-07-23T14:34:59;33.50;99.90
1225;DHT22;602;48.000;7.840;2022-07-23T14:37:26;33.30;99.90
1225;DHT22;602;48.000;7.840;2022-07-23T14:39:53;33.30;99.90
1225;DHT22;602;48.000;7.840;2022-07-23T14:42:20;33.30;99.90
1225;DHT22;602;48.000;7.840;2022-07-23T14:44:47;33.40;99.90
1225;DHT22;602;48.000;7.840;2022-07-23T14:47:15;33.50;99.90
1225;DHT22;602;48.000;7.840;2022-07-23T14:49:43;33.50;99.90
1225;DHT22;602;48.000;7.840;2022-07-23T14:52:10;33.60;99.90
1225;DHT22;602;48.000;7.840;2022-07-23T14:54:37;33.60;99.90
1225;DHT22;602;48.000;7.840;2022-07-23T14:57:04;33.70;99.90
1225;DHT22;602;48.000;7.840;2022-07-23T14:59:33;33.40;99.90
1225;DHT22;602;48.000;7.840;2022-07-23T15:02:00;33.40;99.90
1225;DHT22;602;48.000;7.840;2022-07-23T15:04:28;33.60;99.90
1225;DHT22;602;48.000;7.840;2022-07-23T15:06:55;33.60;99.90
1225;DHT22;602;48.000;7.840;2022-07-23T15:09:22;33.60;99.90
1225;DHT22;602;48.000;7.840;2022-07-23T15:11:48;33.50;99.90
1225;DHT22;602;48.000;7.840;2022-07-23T15:14:15;33.50;99.90
1225;DHT22;602;48.000;7.840;2022-07-23T15:16:42;33.50;99.90
1225;DHT22;602;48.000;7.840;2022-07-23T15:19:09;33.50;99.90
1225;DHT22;602;48.000;7.840;2022-07-23T15:21:37;33.70;99.90
1225;DHT22;602;48.000;7.840;2022-07-23T15:24:05;33.60;99.90
1225;DHT22;602;48.000;7.840;2022-07-23T15:26:31;33.60;99.90
1225;DHT22;602;48.000;7.840;2022-07-23T15:28:58;33.60;99.90
1225;DHT22;602;48.000;7.840;2022-07-23T15:31:28;33.60;99.90
1225;DHT22;602;48.000;7.840;2022-07-23T15:33:55;33.60;99.90
1225;DHT22;602;48.000;7.840;2022-07-23T15:36:22;33.70;99.90
1225;DHT22;602;48.000;7.840;2022-07-23T15:38:50;33.60;99.90
1225;DHT22;602;48.000;7.840;2022-07-23T15:41:17;33.40;99.90
1225;DHT22;602;48.000;7.840;2022-07-23T15:43:44;33.00;99.90
1225;DHT22;602;48.000;7.840;2022-07-23T15:46:11;33.00;99.90
1225;DHT22;602;48.000;7.840;2022-07-23T15:48:38;32.90;99.90
1225;DHT22;602;48.000;7.840;2022-07-23T15:51:05;33.00;99.90
1225;DHT22;602;48.000;7.840;2022-07-23T15:53:32;33.00;99.90
1225;DHT22;602;48.000;7.840;2022-07-23T15:56:00;32.90;99.90
1225;DHT22;602;48.000;7.840;2022-07-23T15:58:28;32.90;99.90
1225;DHT22;602;48.000;7.840;2022-07-23T16:00:55;33.00;99.90
1225;DHT22;602;48.000;7.840;2022-07-23T16:03:22;32.80;99.90
1225;DHT22;602;48.000;7.840;2022-07-23T16:05:50;32.70;99.90
1225;DHT22;602;48.000;7.840;2022-07-23T16:08:17;32.60;99.90
1225;DHT22;602;48.000;7.840;2022-07-23T16:10:43;32.60;99.90
1225;DHT22;602;48.000;7.840;2022-07-23T16:13:12;32.80;99.90
1225;DHT22;602;48.000;7.840;2022-07-23T16:15:39;32.80;99.90
1225;DHT22;602;48.000;7.840;2022-07-23T16:18:07;32.70;99.90
1225;DHT22;602;48.000;7.840;2022-07-23T16:20:36;32.60;99.90
1225;DHT22;602;48.000;7.840;2022-07-23T16:23:03;32.60;99.90
1225;DHT22;602;48.000;7.840;2022-07-23T16:25:32;32.60;99.90
1225;DHT22;602;48.000;7.840;2022-07-23T16:27:59;32.60;99.90